Terminal Aerodrome Forecast
Issued by NWS Charleston, WV

Current Version | Previous Version | Text Only | Print | Product List | Glossary Off
Versions: 1 2 3 4 5 6 7 8 9 10 11 12 13 14 15 16 17 18 19 20 21 22 23 24 25 26 27 28 29

454
FTUS41 KRLX 252357 CCA
TAFPKB
TAF COR
KPKB 252357Z 2600/2624 28016G23KT P6SM -SHSN BKN035 OVC060
     FM260300 27011G19KT P6SM OVC035
     FM260600 27010KT P6SM OVC040
     FM261500 26008KT P6SM SCT250=

USA.gov is the U.S. government's official web portal to all federal, state and local government web resources and services.